sensor_id;sensor_type;location;lat;lon;timestamp;temperature;humidity
22153;DHT22;11242;50.536;12.688;2023-07-22T00:00:15;11.90;99.90
22153;DHT22;11242;50.536;12.688;2023-07-22T00:02:42;11.90;99.90
22153;DHT22;11242;50.536;12.688;2023-07-22T00:05:08;11.90;99.90
22153;DHT22;11242;50.536;12.688;2023-07-22T00:07:36;11.90;99.90
22153;DHT22;11242;50.536;12.688;2023-07-22T00:10:01;11.90;99.90
22153;DHT22;11242;50.536;12.688;2023-07-22T00:12:27;11.90;99.90
22153;DHT22;11242;50.536;12.688;2023-07-22T00:14:53;12.00;99.90
22153;DHT22;11242;50.536;12.688;2023-07-22T00:17:19;12.00;99.90
22153;DHT22;11242;50.536;12.688;2023-07-22T00:19:47;12.00;99.90
22153;DHT22;11242;50.536;12.688;2023-07-22T00:22:13;12.10;99.90
22153;DHT22;11242;50.536;12.688;2023-07-22T00:24:40;12.20;99.90
22153;DHT22;11242;50.536;12.688;2023-07-22T00:27:06;12.20;99.90
22153;DHT22;11242;50.536;12.688;2023-07-22T00:29:34;12.20;99.90
22153;DHT22;11242;50.536;12.688;2023-07-22T00:32:00;12.30;99.90
22153;DHT22;11242;50.536;12.688;2023-07-22T00:34:26;12.30;99.90
22153;DHT22;11242;50.536;12.688;2023-07-22T00:36:51;12.30;99.90
22153;DHT22;11242;50.536;12.688;2023-07-22T00:39:17;12.40;99.90
22153;DHT22;11242;50.536;12.688;2023-07-22T00:41:43;12.30;99.90
22153;DHT22;11242;50.536;12.688;2023-07-22T00:44:11;12.30;99.90
22153;DHT22;11242;50.536;12.688;2023-07-22T00:46:38;12.30;99.90
22153;DHT22;11242;50.536;12.688;2023-07-22T00:49:05;12.30;99.90
22153;DHT22;11242;50.536;12.688;2023-07-22T00:51:32;12.20;99.90
22153;DHT22;11242;50.536;12.688;2023-07-22T00:53:58;12.20;99.90
22153;DHT22;11242;50.536;12.688;2023-07-22T00:56:24;12.20;99.90
22153;DHT22;11242;50.536;12.688;2023-07-22T00:58:51;12.20;99.90
22153;DHT22;11242;50.536;12.688;2023-07-22T01:01:17;12.20;99.90
22153;DHT22;11242;50.536;12.688;2023-07-22T01:03:43;12.20;99.90
22153;DHT22;11242;50.536;12.688;2023-07-22T01:06:09;12.20;99.90
22153;DHT22;11242;50.536;12.688;2023-07-22T01:08:35;12.20;99.90
22153;DHT22;11242;50.536;12.688;2023-07-22T01:11:01;12.20;99.90
22153;DHT22;11242;50.536;12.688;2023-07-22T01:13:27;12.20;99.90
22153;DHT22;11242;50.536;12.688;2023-07-22T01:15:53;12.30;99.90
22153;DHT22;11242;50.536;12.688;2023-07-22T01:18:19;12.30;99.90
22153;DHT22;11242;50.536;12.688;2023-07-22T01:20:46;12.30;99.90
22153;DHT22;11242;50.536;12.688;2023-07-22T01:23:12;12.30;99.90
22153;DHT22;11242;50.536;12.688;2023-07-22T01:25:38;12.30;99.90
22153;DHT22;11242;50.536;12.688;2023-07-22T01:28:09;12.20;99.90
22153;DHT22;11242;50.536;12.688;2023-07-22T01:30:35;12.20;99.90
22153;DHT22;11242;50.536;12.688;2023-07-22T01:33:01;12.10;99.90
22153;DHT22;11242;50.536;12.688;2023-07-22T01:35:27;12.20;99.90
22153;DHT22;11242;50.536;12.688;2023-07-22T01:37:52;12.20;99.90
22153;DHT22;11242;50.536;12.688;2023-07-22T01:40:18;12.30;99.90
22153;DHT22;11242;50.536;12.688;2023-07-22T01:42:44;12.40;99.90
22153;DHT22;11242;50.536;12.688;2023-07-22T01:45:10;12.40;99.90
22153;DHT22;11242;50.536;12.688;2023-07-22T01:47:37;12.40;99.90
22153;DHT22;11242;50.536;12.688;2023-07-22T01:50:04;12.50;99.90
22153;DHT22;11242;50.536;12.688;2023-07-22T01:52:32;12.60;99.90
22153;DHT22;11242;50.536;12.688;2023-07-22T01:54:57;12.60;99.90
22153;DHT22;11242;50.536;12.688;2023-07-22T01:57:23;12.60;99.90
22153;DHT22;11242;50.536;12.688;2023-07-22T01:59:48;12.70;99.90
22153;DHT22;11242;50.536;12.688;2023-07-22T02:02:14;12.70;99.90
22153;DHT22;11242;50.536;12.688;2023-07-22T02:04:40;12.70;99.90
22153;DHT22;11242;50.536;12.688;2023-07-22T02:07:05;12.70;99.90
22153;DHT22;11242;50.536;12.688;2023-07-22T02:09:32;12.80;99.90
22153;DHT22;11242;50.536;12.688;2023-07-22T02:11:58;12.70;99.90
22153;DHT22;11242;50.536;12.688;2023-07-22T02:14:24;12.80;99.90
22153;DHT22;11242;50.536;12.688;2023-07-22T02:16:50;12.80;99.90
22153;DHT22;11242;50.536;12.688;2023-07-22T02:19:15;12.80;99.90
22153;DHT22;11242;50.536;12.688;2023-07-22T02:21:41;12.80;99.90
22153;DHT22;11242;50.536;12.688;2023-07-22T02:24:08;12.80;99.90
22153;DHT22;11242;50.536;12.688;2023-07-22T02:26:34;12.80;99.90
22153;DHT22;11242;50.536;12.688;2023-07-22T02:28:59;12.80;99.90
22153;DHT22;11242;50.536;12.688;2023-07-22T02:31:25;12.80;99.90
22153;DHT22;11242;50.536;12.688;2023-07-22T02:33:51;12.80;99.90
22153;DHT22;11242;50.536;12.688;2023-07-22T02:36:17;12.90;99.90
22153;DHT22;11242;50.536;12.688;2023-07-22T02:38:42;12.90;99.90
22153;DHT22;11242;50.536;12.688;2023-07-22T02:41:08;12.90;99.90
22153;DHT22;11242;50.536;12.688;2023-07-22T02:43:34;12.90;99.90
22153;DHT22;11242;50.536;12.688;2023-07-22T02:46:04;12.90;99.90
22153;DHT22;11242;50.536;12.688;2023-07-22T02:48:32;12.90;99.90
22153;DHT22;11242;50.536;12.688;2023-07-22T02:51:05;12.90;99.90
22153;DHT22;11242;50.536;12.688;2023-07-22T02:53:32;12.90;99.90
22153;DHT22;11242;50.536;12.688;2023-07-22T02:55:59;12.90;99.90
22153;DHT22;11242;50.536;12.688;2023-07-22T02:58:25;12.90;99.90
22153;DHT22;11242;50.536;12.688;2023-07-22T03:00:50;13.00;99.90
22153;DHT22;11242;50.536;12.688;2023-07-22T03:03:16;13.00;99.90
22153;DHT22;11242;50.536;12.688;2023-07-22T03:05:41;13.00;99.90
22153;DHT22;11242;50.536;12.688;2023-07-22T03:08:07;13.00;99.90
22153;DHT22;11242;50.536;12.688;2023-07-22T03:10:33;13.00;99.90
22153;DHT22;11242;50.536;12.688;2023-07-22T03:12:58;13.00;99.90
22153;DHT22;11242;50.536;12.688;2023-07-22T03:15:25;13.00;99.90
22153;DHT22;11242;50.536;12.688;2023-07-22T03:17:52;13.00;99.90
22153;DHT22;11242;50.536;12.688;2023-07-22T03:20:17;13.00;99.90
22153;DHT22;11242;50.536;12.688;2023-07-22T03:22:45;13.00;99.90
22153;DHT22;11242;50.536;12.688;2023-07-22T03:25:12;13.00;99.90
22153;DHT22;11242;50.536;12.688;2023-07-22T03:27:38;13.00;99.90
22153;DHT22;11242;50.536;12.688;2023-07-22T03:30:05;13.00;99.90
22153;DHT22;11242;50.536;12.688;2023-07-22T03:32:33;12.90;99.90
22153;DHT22;11242;50.536;12.688;2023-07-22T03:34:59;12.90;99.90
22153;DHT22;11242;50.536;12.688;2023-07-22T03:37:25;12.80;99.90
22153;DHT22;11242;50.536;12.688;2023-07-22T03:39:50;12.70;99.90
22153;DHT22;11242;50.536;12.688;2023-07-22T03:42:16;12.60;99.90
22153;DHT22;11242;50.536;12.688;2023-07-22T03:44:42;12.60;99.90
22153;DHT22;11242;50.536;12.688;2023-07-22T03:47:07;12.60;99.90
22153;DHT22;11242;50.536;12.688;2023-07-22T03:49:33;12.60;99.90
22153;DHT22;11242;50.536;12.688;2023-07-22T03:51:58;12.60;99.90
22153;DHT22;11242;50.536;12.688;2023-07-22T03:54:24;12.60;99.90
22153;DHT22;11242;50.536;12.688;2023-07-22T03:56:50;12.60;99.90
22153;DHT22;11242;50.536;12.688;2023-07-22T03:59:15;12.60;99.90
22153;DHT22;11242;50.536;12.688;2023-07-22T04:01:41;12.60;99.90
22153;DHT22;11242;50.536;12.688;2023-07-22T04:04:06;12.60;99.90
22153;DHT22;11242;50.536;12.688;2023-07-22T04:06:32;12.60;99.90
22153;DHT22;11242;50.536;12.688;2023-07-22T04:08:58;12.50;99.90
22153;DHT22;11242;50.536;12.688;2023-07-22T04:11:26;12.50;99.90
22153;DHT22;11242;50.536;12.688;2023-07-22T04:13:51;12.50;99.90
22153;DHT22;11242;50.536;12.688;2023-07-22T04:16:17;12.60;99.90
22153;DHT22;11242;50.536;12.688;2023-07-22T04:18:43;12.70;99.90
22153;DHT22;11242;50.536;12.688;2023-07-22T04:21:08;12.80;99.90
22153;DHT22;11242;50.536;12.688;2023-07-22T04:23:34;12.80;99.90
22153;DHT22;11242;50.536;12.688;2023-07-22T04:26:02;12.90;99.90
22153;DHT22;11242;50.536;12.688;2023-07-22T04:28:30;13.10;99.90
22153;DHT22;11242;50.536;12.688;2023-07-22T04:30:57;13.10;99.90
22153;DHT22;11242;50.536;12.688;2023-07-22T04:33:27;13.20;99.90
22153;DHT22;11242;50.536;12.688;2023-07-22T04:35:55;13.20;99.90
22153;DHT22;11242;50.536;12.688;2023-07-22T04:38:21;13.30;99.90
22153;DHT22;11242;50.536;12.688;2023-07-22T04:40:47;13.40;99.90
22153;DHT22;11242;50.536;12.688;2023-07-22T04:43:12;13.40;99.90
22153;DHT22;11242;50.536;12.688;2023-07-22T04:45:38;13.30;99.90
22153;DHT22;11242;50.536;12.688;2023-07-22T04:48:07;13.30;99.90
22153;DHT22;11242;50.536;12.688;2023-07-22T04:50:33;13.30;99.90
22153;DHT22;11242;50.536;12.688;2023-07-22T04:52:59;13.40;99.90
22153;DHT22;11242;50.536;12.688;2023-07-22T04:55:24;13.40;99.90
22153;DHT22;11242;50.536;12.688;2023-07-22T04:57:51;13.50;99.90
22153;DHT22;11242;50.536;12.688;2023-07-22T05:00:17;13.50;99.90
22153;DHT22;11242;50.536;12.688;2023-07-22T05:02:45;13.40;99.90
22153;DHT22;11242;50.536;12.688;2023-07-22T05:05:15;13.60;99.90
22153;DHT22;11242;50.536;12.688;2023-07-22T05:07:41;14.00;99.90
22153;DHT22;11242;50.536;12.688;2023-07-22T05:10:07;14.20;99.90
22153;DHT22;11242;50.536;12.688;2023-07-22T05:12:38;14.40;99.90
22153;DHT22;11242;50.536;12.688;2023-07-22T05:15:05;14.50;99.90
22153;DHT22;11242;50.536;12.688;2023-07-22T05:17:30;14.40;99.90
22153;DHT22;11242;50.536;12.688;2023-07-22T05:19:57;14.30;99.90
22153;DHT22;11242;50.536;12.688;2023-07-22T05:22:23;14.30;99.90
22153;DHT22;11242;50.536;12.688;2023-07-22T05:24:48;14.40;99.90
22153;DHT22;11242;50.536;12.688;2023-07-22T05:27:14;14.40;99.90
22153;DHT22;11242;50.536;12.688;2023-07-22T05:29:40;14.40;99.90
22153;DHT22;11242;50.536;12.688;2023-07-22T05:32:06;14.50;99.90
22153;DHT22;11242;50.536;12.688;2023-07-22T05:34:32;14.30;99.90
22153;DHT22;11242;50.536;12.688;2023-07-22T05:36:58;14.40;99.90
22153;DHT22;11242;50.536;12.688;2023-07-22T05:39:23;14.40;99.90
22153;DHT22;11242;50.536;12.688;2023-07-22T05:41:49;14.40;99.90
22153;DHT22;11242;50.536;12.688;2023-07-22T05:44:14;14.40;99.90
22153;DHT22;11242;50.536;12.688;2023-07-22T05:46:40;14.50;99.90
22153;DHT22;11242;50.536;12.688;2023-07-22T05:49:06;14.60;99.90
22153;DHT22;11242;50.536;12.688;2023-07-22T05:51:31;14.70;99.90
22153;DHT22;11242;50.536;12.688;2023-07-22T05:53:57;14.80;99.90
22153;DHT22;11242;50.536;12.688;2023-07-22T05:56:23;14.90;99.90
22153;DHT22;11242;50.536;12.688;2023-07-22T05:58:48;15.10;99.90
22153;DHT22;11242;50.536;12.688;2023-07-22T06:01:14;15.50;99.90
22153;DHT22;11242;50.536;12.688;2023-07-22T06:03:40;16.20;99.90
22153;DHT22;11242;50.536;12.688;2023-07-22T06:06:06;16.40;99.90
22153;DHT22;11242;50.536;12.688;2023-07-22T06:08:32;16.50;99.90
22153;DHT22;11242;50.536;12.688;2023-07-22T06:10:57;17.10;99.90
22153;DHT22;11242;50.536;12.688;2023-07-22T06:13:23;18.00;99.90
22153;DHT22;11242;50.536;12.688;2023-07-22T06:15:49;18.40;99.90
22153;DHT22;11242;50.536;12.688;2023-07-22T06:18:14;18.10;99.90
22153;DHT22;11242;50.536;12.688;2023-07-22T06:20:40;18.00;99.90
22153;DHT22;11242;50.536;12.688;2023-07-22T06:23:05;17.60;99.90
22153;DHT22;11242;50.536;12.688;2023-07-22T06:25:31;17.20;99.90
22153;DHT22;11242;50.536;12.688;2023-07-22T06:27:57;17.60;99.90
22153;DHT22;11242;50.536;12.688;2023-07-22T06:30:22;18.60;99.90
22153;DHT22;11242;50.536;12.688;2023-07-22T06:32:48;19.60;99.90
22153;DHT22;11242;50.536;12.688;2023-07-22T06:35:13;19.30;99.90
22153;DHT22;11242;50.536;12.688;2023-07-22T06:37:39;19.30;99.90
22153;DHT22;11242;50.536;12.688;2023-07-22T06:40:06;19.40;99.90
22153;DHT22;11242;50.536;12.688;2023-07-22T06:42:32;18.90;99.90
22153;DHT22;11242;50.536;12.688;2023-07-22T06:44:57;18.70;99.90
22153;DHT22;11242;50.536;12.688;2023-07-22T06:47:23;18.90;99.90
22153;DHT22;11242;50.536;12.688;2023-07-22T06:49:49;19.10;99.90
22153;DHT22;11242;50.536;12.688;2023-07-22T06:52:16;20.40;99.90
22153;DHT22;11242;50.536;12.688;2023-07-22T06:54:41;21.70;99.90
22153;DHT22;11242;50.536;12.688;2023-07-22T06:57:07;21.50;99.90
22153;DHT22;11242;50.536;12.688;2023-07-22T06:59:33;21.50;99.90
22153;DHT22;11242;50.536;12.688;2023-07-22T07:01:58;22.30;99.90
22153;DHT22;11242;50.536;12.688;2023-07-22T07:04:24;22.90;99.90
22153;DHT22;11242;50.536;12.688;2023-07-22T07:06:51;22.30;99.90
22153;DHT22;11242;50.536;12.688;2023-07-22T07:09:20;21.40;99.90
22153;DHT22;11242;50.536;12.688;2023-07-22T07:11:46;20.40;99.90
22153;DHT22;11242;50.536;12.688;2023-07-22T07:14:12;21.40;99.90
22153;DHT22;11242;50.536;12.688;2023-07-22T07:16:38;23.50;97.50
22153;DHT22;11242;50.536;12.688;2023-07-22T07:19:03;24.10;91.60
22153;DHT22;11242;50.536;12.688;2023-07-22T07:21:29;25.50;86.30
22153;DHT22;11242;50.536;12.688;2023-07-22T07:23:55;25.40;83.70
22153;DHT22;11242;50.536;12.688;2023-07-22T07:26:21;24.80;81.40
22153;DHT22;11242;50.536;12.688;2023-07-22T07:28:48;24.70;82.50
22153;DHT22;11242;50.536;12.688;2023-07-22T07:31:16;24.90;83.20
22153;DHT22;11242;50.536;12.688;2023-07-22T07:33:42;24.60;84.80
22153;DHT22;11242;50.536;12.688;2023-07-22T07:36:10;25.20;81.10
22153;DHT22;11242;50.536;12.688;2023-07-22T07:38:36;26.60;78.20
22153;DHT22;11242;50.536;12.688;2023-07-22T07:41:04;28.00;71.90
22153;DHT22;11242;50.536;12.688;2023-07-22T07:43:30;28.20;68.40
22153;DHT22;11242;50.536;12.688;2023-07-22T07:46:19;27.10;67.90
22153;DHT22;11242;50.536;12.688;2023-07-22T07:48:48;26.80;69.00
22153;DHT22;11242;50.536;12.688;2023-07-22T07:51:15;25.50;69.20
22153;DHT22;11242;50.536;12.688;2023-07-22T07:53:42;24.70;70.10
22153;DHT22;11242;50.536;12.688;2023-07-22T07:56:09;25.50;67.20
22153;DHT22;11242;50.536;12.688;2023-07-22T07:58:36;27.10;64.30
22153;DHT22;11242;50.536;12.688;2023-07-22T08:01:01;28.30;60.20
22153;DHT22;11242;50.536;12.688;2023-07-22T08:03:27;28.50;58.90
22153;DHT22;11242;50.536;12.688;2023-07-22T08:05:52;27.50;60.60
22153;DHT22;11242;50.536;12.688;2023-07-22T08:08:19;25.90;64.30
22153;DHT22;11242;50.536;12.688;2023-07-22T08:10:44;26.20;63.70
22153;DHT22;11242;50.536;12.688;2023-07-22T08:13:10;27.30;63.20
22153;DHT22;11242;50.536;12.688;2023-07-22T08:15:36;28.40;57.70
22153;DHT22;11242;50.536;12.688;2023-07-22T08:18:02;28.50;56.70
22153;DHT22;11242;50.536;12.688;2023-07-22T08:20:29;28.00;56.70
22153;DHT22;11242;50.536;12.688;2023-07-22T08:22:56;26.60;58.10
22153;DHT22;11242;50.536;12.688;2023-07-22T08:25:21;25.20;59.00
22153;DHT22;11242;50.536;12.688;2023-07-22T08:27:47;24.60;62.20
22153;DHT22;11242;50.536;12.688;2023-07-22T08:30:13;24.50;62.00
22153;DHT22;11242;50.536;12.688;2023-07-22T08:32:38;24.00;62.70
22153;DHT22;11242;50.536;12.688;2023-07-22T08:35:04;25.40;60.10
22153;DHT22;11242;50.536;12.688;2023-07-22T08:37:31;26.80;58.80
22153;DHT22;11242;50.536;12.688;2023-07-22T08:39:57;28.20;56.70
22153;DHT22;11242;50.536;12.688;2023-07-22T08:42:23;28.70;53.60
22153;DHT22;11242;50.536;12.688;2023-07-22T08:44:56;29.10;53.40
22153;DHT22;11242;50.536;12.688;2023-07-22T08:47:24;29.30;50.50
22153;DHT22;11242;50.536;12.688;2023-07-22T08:49:52;29.50;49.60
22153;DHT22;11242;50.536;12.688;2023-07-22T08:52:19;28.50;50.90
22153;DHT22;11242;50.536;12.688;2023-07-22T08:54:46;29.10;50.20
22153;DHT22;11242;50.536;12.688;2023-07-22T08:57:12;29.10;48.60
22153;DHT22;11242;50.536;12.688;2023-07-22T08:59:38;29.00;49.20
22153;DHT22;11242;50.536;12.688;2023-07-22T09:02:04;29.80;46.20
22153;DHT22;11242;50.536;12.688;2023-07-22T09:04:31;30.50;45.30
22153;DHT22;11242;50.536;12.688;2023-07-22T09:06:57;30.90;44.40
22153;DHT22;11242;50.536;12.688;2023-07-22T09:09:24;31.20;45.00
22153;DHT22;11242;50.536;12.688;2023-07-22T09:11:51;30.10;43.60
22153;DHT22;11242;50.536;12.688;2023-07-22T09:14:19;27.90;47.40
22153;DHT22;11242;50.536;12.688;2023-07-22T09:16:45;27.30;46.70
22153;DHT22;11242;50.536;12.688;2023-07-22T09:19:11;27.60;49.00
22153;DHT22;11242;50.536;12.688;2023-07-22T09:21:36;28.10;46.80
22153;DHT22;11242;50.536;12.688;2023-07-22T09:24:04;28.90;46.70
22153;DHT22;11242;50.536;12.688;2023-07-22T09:26:44;29.50;43.60
22153;DHT22;11242;50.536;12.688;2023-07-22T09:29:10;29.60;42.20
22153;DHT22;11242;50.536;12.688;2023-07-22T09:31:52;28.90;43.70
22153;DHT22;11242;50.536;12.688;2023-07-22T09:34:18;28.30;43.80
22153;DHT22;11242;50.536;12.688;2023-07-22T09:36:57;26.10;46.20
22153;DHT22;11242;50.536;12.688;2023-07-22T09:39:26;25.00;48.40
22153;DHT22;11242;50.536;12.688;2023-07-22T09:41:52;25.20;47.60
22153;DHT22;11242;50.536;12.688;2023-07-22T09:44:21;24.90;48.10
22153;DHT22;11242;50.536;12.688;2023-07-22T09:46:48;23.80;50.40
22153;DHT22;11242;50.536;12.688;2023-07-22T09:49:16;23.20;52.60
22153;DHT22;11242;50.536;12.688;2023-07-22T09:51:45;23.00;51.20
22153;DHT22;11242;50.536;12.688;2023-07-22T09:54:14;22.70;51.70
22153;DHT22;11242;50.536;12.688;2023-07-22T09:56:48;22.50;52.10
22153;DHT22;11242;50.536;12.688;2023-07-22T09:59:14;22.30;52.90
22153;DHT22;11242;50.536;12.688;2023-07-22T10:01:40;22.30;52.90
22153;DHT22;11242;50.536;12.688;2023-07-22T10:04:07;22.30;54.30
22153;DHT22;11242;50.536;12.688;2023-07-22T10:06:33;22.20;53.30
22153;DHT22;11242;50.536;12.688;2023-07-22T10:09:05;22.40;52.50
22153;DHT22;11242;50.536;12.688;2023-07-22T10:11:34;22.10;52.60
22153;DHT22;11242;50.536;12.688;2023-07-22T10:14:02;21.90;52.90
22153;DHT22;11242;50.536;12.688;2023-07-22T10:16:28;22.10;52.20
22153;DHT22;11242;50.536;12.688;2023-07-22T10:18:55;22.20;52.70
22153;DHT22;11242;50.536;12.688;2023-07-22T10:21:22;21.80;52.00
22153;DHT22;11242;50.536;12.688;2023-07-22T10:23:49;21.80;53.80
22153;DHT22;11242;50.536;12.688;2023-07-22T10:26:19;21.80;54.10
22153;DHT22;11242;50.536;12.688;2023-07-22T10:28:46;22.20;52.80
22153;DHT22;11242;50.536;12.688;2023-07-22T10:31:13;22.30;52.70
22153;DHT22;11242;50.536;12.688;2023-07-22T10:33:39;22.30;52.30
22153;DHT22;11242;50.536;12.688;2023-07-22T10:36:06;22.60;52.90
22153;DHT22;11242;50.536;12.688;2023-07-22T10:38:33;22.90;51.50
22153;DHT22;11242;50.536;12.688;2023-07-22T10:40:59;22.70;51.10
22153;DHT22;11242;50.536;12.688;2023-07-22T10:43:33;22.50;51.30
22153;DHT22;11242;50.536;12.688;2023-07-22T10:46:12;22.20;52.40
22153;DHT22;11242;50.536;12.688;2023-07-22T10:48:39;21.90;53.90
22153;DHT22;11242;50.536;12.688;2023-07-22T10:53:32;21.90;52.10
22153;DHT22;11242;50.536;12.688;2023-07-22T11:04:12;23.20;52.50
22153;DHT22;11242;50.536;12.688;2023-07-22T11:06:59;23.30;51.60
22153;DHT22;11242;50.536;12.688;2023-07-22T11:14:44;23.20;51.00
22153;DHT22;11242;50.536;12.688;2023-07-22T11:17:11;22.90;50.90
22153;DHT22;11242;50.536;12.688;2023-07-22T11:19:37;22.80;50.50
22153;DHT22;11242;50.536;12.688;2023-07-22T11:22:04;22.90;51.10
22153;DHT22;11242;50.536;12.688;2023-07-22T11:24:32;23.10;50.60
22153;DHT22;11242;50.536;12.688;2023-07-22T11:26:59;23.00;50.60
22153;DHT22;11242;50.536;12.688;2023-07-22T11:29:24;22.40;51.00
22153;DHT22;11242;50.536;12.688;2023-07-22T11:31:51;22.40;51.50
22153;DHT22;11242;50.536;12.688;2023-07-22T11:34:19;22.60;52.30
22153;DHT22;11242;50.536;12.688;2023-07-22T11:36:46;22.60;51.50
22153;DHT22;11242;50.536;12.688;2023-07-22T11:39:16;22.50;52.00
22153;DHT22;11242;50.536;12.688;2023-07-22T11:41:43;22.60;52.00
22153;DHT22;11242;50.536;12.688;2023-07-22T11:44:16;22.40;50.80
22153;DHT22;11242;50.536;12.688;2023-07-22T11:52:05;22.30;52.50
22153;DHT22;11242;50.536;12.688;2023-07-22T11:54:34;22.40;53.00
22153;DHT22;11242;50.536;12.688;2023-07-22T11:57:22;22.70;52.10
22153;DHT22;11242;50.536;12.688;2023-07-22T11:59:55;22.70;51.90
22153;DHT22;11242;50.536;12.688;2023-07-22T12:02:28;22.80;50.80
22153;DHT22;11242;50.536;12.688;2023-07-22T12:05:00;22.60;51.70
22153;DHT22;11242;50.536;12.688;2023-07-22T12:07:34;22.40;51.90
22153;DHT22;11242;50.536;12.688;2023-07-22T12:10:01;22.50;52.70
22153;DHT22;11242;50.536;12.688;2023-07-22T12:15:21;22.80;51.90
22153;DHT22;11242;50.536;12.688;2023-07-22T12:20:25;22.90;53.00
22153;DHT22;11242;50.536;12.688;2023-07-22T12:22:52;23.10;52.30
22153;DHT22;11242;50.536;12.688;2023-07-22T12:25:18;23.00;51.50
22153;DHT22;11242;50.536;12.688;2023-07-22T12:27:44;22.90;53.20
22153;DHT22;11242;50.536;12.688;2023-07-22T12:30:10;22.90;51.10
22153;DHT22;11242;50.536;12.688;2023-07-22T12:32:36;22.70;53.30
22153;DHT22;11242;50.536;12.688;2023-07-22T12:35:02;23.00;52.40
22153;DHT22;11242;50.536;12.688;2023-07-22T12:37:29;23.00;51.40
22153;DHT22;11242;50.536;12.688;2023-07-22T12:39:55;23.20;51.30
22153;DHT22;11242;50.536;12.688;2023-07-22T12:42:20;23.50;52.40
22153;DHT22;11242;50.536;12.688;2023-07-22T12:44:46;23.60;51.30
22153;DHT22;11242;50.536;12.688;2023-07-22T12:47:12;23.60;51.50
22153;DHT22;11242;50.536;12.688;2023-07-22T12:49:37;23.60;51.30
22153;DHT22;11242;50.536;12.688;2023-07-22T12:52:03;23.60;50.60
22153;DHT22;11242;50.536;12.688;2023-07-22T12:54:30;23.60;52.20
22153;DHT22;11242;50.536;12.688;2023-07-22T12:56:57;23.90;51.60
22153;DHT22;11242;50.536;12.688;2023-07-22T12:59:22;23.90;51.00
22153;DHT22;11242;50.536;12.688;2023-07-22T13:01:48;23.70;50.50
22153;DHT22;11242;50.536;12.688;2023-07-22T13:04:14;23.50;52.10
22153;DHT22;11242;50.536;12.688;2023-07-22T13:06:40;23.40;51.40
22153;DHT22;11242;50.536;12.688;2023-07-22T13:09:05;23.30;51.50
22153;DHT22;11242;50.536;12.688;2023-07-22T13:11:31;23.20;51.30
22153;DHT22;11242;50.536;12.688;2023-07-22T13:13:57;23.00;53.50
22153;DHT22;11242;50.536;12.688;2023-07-22T13:16:22;23.00;53.20
22153;DHT22;11242;50.536;12.688;2023-07-22T13:18:48;22.70;53.80
22153;DHT22;11242;50.536;12.688;2023-07-22T13:21:13;22.60;54.50
22153;DHT22;11242;50.536;12.688;2023-07-22T13:23:39;22.80;54.10
22153;DHT22;11242;50.536;12.688;2023-07-22T13:26:04;22.90;54.70
22153;DHT22;11242;50.536;12.688;2023-07-22T13:28:30;23.20;54.90
22153;DHT22;11242;50.536;12.688;2023-07-22T13:30:56;23.50;54.40
22153;DHT22;11242;50.536;12.688;2023-07-22T13:33:21;23.40;54.40
22153;DHT22;11242;50.536;12.688;2023-07-22T13:35:47;23.50;54.50
22153;DHT22;11242;50.536;12.688;2023-07-22T13:38:12;23.70;53.80
22153;DHT22;11242;50.536;12.688;2023-07-22T13:40:38;24.10;53.90
22153;DHT22;11242;50.536;12.688;2023-07-22T13:43:04;24.10;52.20
22153;DHT22;11242;50.536;12.688;2023-07-22T13:45:35;23.70;53.10
22153;DHT22;11242;50.536;12.688;2023-07-22T13:48:01;23.50;53.70
22153;DHT22;11242;50.536;12.688;2023-07-22T13:50:26;23.20;54.50
22153;DHT22;11242;50.536;12.688;2023-07-22T13:52:52;22.90;54.00
22153;DHT22;11242;50.536;12.688;2023-07-22T13:55:18;22.90;55.70
22153;DHT22;11242;50.536;12.688;2023-07-22T13:57:43;22.70;55.10
22153;DHT22;11242;50.536;12.688;2023-07-22T14:00:09;22.80;55.70
22153;DHT22;11242;50.536;12.688;2023-07-22T14:02:38;22.90;55.00
22153;DHT22;11242;50.536;12.688;2023-07-22T14:05:04;23.00;55.70
22153;DHT22;11242;50.536;12.688;2023-07-22T14:07:30;23.30;55.50
22153;DHT22;11242;50.536;12.688;2023-07-22T14:09:55;23.10;54.20
22153;DHT22;11242;50.536;12.688;2023-07-22T14:12:21;23.00;54.50
22153;DHT22;11242;50.536;12.688;2023-07-22T14:14:47;22.90;54.70
22153;DHT22;11242;50.536;12.688;2023-07-22T14:17:12;22.80;55.60
22153;DHT22;11242;50.536;12.688;2023-07-22T14:19:38;22.80;55.50
22153;DHT22;11242;50.536;12.688;2023-07-22T14:22:04;22.90;55.50
22153;DHT22;11242;50.536;12.688;2023-07-22T14:24:30;23.00;55.40
22153;DHT22;11242;50.536;12.688;2023-07-22T14:26:56;23.00;54.80
22153;DHT22;11242;50.536;12.688;2023-07-22T14:29:22;22.90;55.90
22153;DHT22;11242;50.536;12.688;2023-07-22T14:31:47;23.00;55.50
22153;DHT22;11242;50.536;12.688;2023-07-22T14:34:13;23.20;55.40
22153;DHT22;11242;50.536;12.688;2023-07-22T14:36:39;23.40;55.60
22153;DHT22;11242;50.536;12.688;2023-07-22T14:39:05;23.60;55.10
22153;DHT22;11242;50.536;12.688;2023-07-22T14:41:31;23.50;55.20
22153;DHT22;11242;50.536;12.688;2023-07-22T14:43:56;23.40;55.30
22153;DHT22;11242;50.536;12.688;2023-07-22T14:46:22;23.40;56.20
22153;DHT22;11242;50.536;12.688;2023-07-22T14:48:48;23.40;55.60
22153;DHT22;11242;50.536;12.688;2023-07-22T14:51:14;23.30;56.20
22153;DHT22;11242;50.536;12.688;2023-07-22T14:53:39;23.20;55.80
22153;DHT22;11242;50.536;12.688;2023-07-22T14:56:05;22.60;56.50
22153;DHT22;11242;50.536;12.688;2023-07-22T14:58:34;22.50;57.40
22153;DHT22;11242;50.536;12.688;2023-07-22T15:01:00;22.80;57.10
22153;DHT22;11242;50.536;12.688;2023-07-22T15:03:26;23.20;57.20
22153;DHT22;11242;50.536;12.688;2023-07-22T15:05:52;23.40;56.30
22153;DHT22;11242;50.536;12.688;2023-07-22T15:08:18;23.40;56.20
22153;DHT22;11242;50.536;12.688;2023-07-22T15:10:43;23.20;56.60
22153;DHT22;11242;50.536;12.688;2023-07-22T15:13:09;23.20;56.10
22153;DHT22;11242;50.536;12.688;2023-07-22T15:15:34;22.90;57.30
22153;DHT22;11242;50.536;12.688;2023-07-22T15:18:00;22.40;58.70
22153;DHT22;11242;50.536;12.688;2023-07-22T15:20:26;22.60;57.70
22153;DHT22;11242;50.536;12.688;2023-07-22T15:22:52;22.40;57.80
22153;DHT22;11242;50.536;12.688;2023-07-22T15:25:17;22.30;58.20
22153;DHT22;11242;50.536;12.688;2023-07-22T15:27:43;22.40;57.60
22153;DHT22;11242;50.536;12.688;2023-07-22T15:30:09;22.40;56.50
22153;DHT22;11242;50.536;12.688;2023-07-22T15:32:35;22.60;57.30
22153;DHT22;11242;50.536;12.688;2023-07-22T15:35:01;22.60;56.10
22153;DHT22;11242;50.536;12.688;2023-07-22T15:37:27;22.60;56.60